sensor_id;sensor_type;location;lat;lon;timestamp;P1;durP1;ratioP1;P2;durP2;ratioP2
41253;SDS011;26987;59.928;30.306;2023-01-08T00:00:45;16.07;;;5.07;;
41253;SDS011;26987;59.928;30.306;2023-01-08T00:03:13;11.97;;;4.13;;
41253;SDS011;26987;59.928;30.306;2023-01-08T00:05:41;16.40;;;4.57;;
41253;SDS011;26987;59.928;30.306;2023-01-08T00:08:11;8.47;;;3.50;;
41253;SDS011;26987;59.928;30.306;2023-01-08T00:10:38;10.17;;;3.47;;
41253;SDS011;26987;59.928;30.306;2023-01-08T00:13:06;13.33;;;4.30;;
41253;SDS011;26987;59.928;30.306;2023-01-08T00:15:34;9.90;;;3.60;;
41253;SDS011;26987;59.928;30.306;2023-01-08T00:18:02;11.90;;;4.57;;
41253;SDS011;26987;59.928;30.306;2023-01-08T00:20:29;11.80;;;3.90;;
41253;SDS011;26987;59.928;30.306;2023-01-08T00:22:57;7.87;;;3.20;;
41253;SDS011;26987;59.928;30.306;2023-01-08T00:25:26;8.77;;;3.27;;
41253;SDS011;26987;59.928;30.306;2023-01-08T00:27:54;11.13;;;2.70;;
41253;SDS011;26987;59.928;30.306;2023-01-08T00:30:21;7.63;;;2.43;;
41253;SDS011;26987;59.928;30.306;2023-01-08T00:32:49;9.73;;;2.60;;
41253;SDS011;26987;59.928;30.306;2023-01-08T00:35:17;6.00;;;2.17;;
41253;SDS011;26987;59.928;30.306;2023-01-08T00:37:44;9.53;;;3.37;;
41253;SDS011;26987;59.928;30.306;2023-01-08T00:40:15;6.00;;;3.07;;
41253;SDS011;26987;59.928;30.306;2023-01-08T00:42:44;15.53;;;3.10;;
41253;SDS011;26987;59.928;30.306;2023-01-08T00:45:12;6.97;;;2.40;;
41253;SDS011;26987;59.928;30.306;2023-01-08T00:47:40;6.43;;;1.60;;
41253;SDS011;26987;59.928;30.306;2023-01-08T00:50:08;9.63;;;3.77;;
41253;SDS011;26987;59.928;30.306;2023-01-08T00:52:36;8.43;;;2.93;;
41253;SDS011;26987;59.928;30.306;2023-01-08T00:55:05;9.00;;;3.63;;
41253;SDS011;26987;59.928;30.306;2023-01-08T00:57:33;9.87;;;2.63;;
41253;SDS011;26987;59.928;30.306;2023-01-08T01:00:07;10.83;;;3.20;;
41253;SDS011;26987;59.928;30.306;2023-01-08T01:02:37;13.67;;;3.23;;
41253;SDS011;26987;59.928;30.306;2023-01-08T01:05:06;10.20;;;3.60;;
41253;SDS011;26987;59.928;30.306;2023-01-08T01:07:35;10.70;;;3.23;;
41253;SDS011;26987;59.928;30.306;2023-01-08T01:10:03;11.10;;;3.50;;
41253;SDS011;26987;59.928;30.306;2023-01-08T01:12:31;7.27;;;2.83;;
41253;SDS011;26987;59.928;30.306;2023-01-08T01:14:59;12.83;;;3.10;;
41253;SDS011;26987;59.928;30.306;2023-01-08T01:17:28;8.13;;;2.43;;
41253;SDS011;26987;59.928;30.306;2023-01-08T01:19:56;8.20;;;3.53;;
41253;SDS011;26987;59.928;30.306;2023-01-08T01:22:23;10.63;;;3.43;;
41253;SDS011;26987;59.928;30.306;2023-01-08T01:24:51;13.43;;;3.20;;
41253;SDS011;26987;59.928;30.306;2023-01-08T01:27:19;6.50;;;2.43;;
41253;SDS011;26987;59.928;30.306;2023-01-08T01:29:46;9.33;;;3.53;;
41253;SDS011;26987;59.928;30.306;2023-01-08T01:32:14;14.80;;;3.50;;
41253;SDS011;26987;59.928;30.306;2023-01-08T01:34:43;10.67;;;2.93;;
41253;SDS011;26987;59.928;30.306;2023-01-08T01:37:11;10.23;;;3.70;;
41253;SDS011;26987;59.928;30.306;2023-01-08T01:39:40;13.17;;;4.57;;
41253;SDS011;26987;59.928;30.306;2023-01-08T01:42:10;12.43;;;4.07;;
41253;SDS011;26987;59.928;30.306;2023-01-08T01:45:00;16.87;;;4.53;;
41253;SDS011;26987;59.928;30.306;2023-01-08T01:47:29;15.37;;;4.60;;
41253;SDS011;26987;59.928;30.306;2023-01-08T01:50:03;12.63;;;5.00;;
41253;SDS011;26987;59.928;30.306;2023-01-08T01:52:36;14.25;;;4.53;;
41253;SDS011;26987;59.928;30.306;2023-01-08T01:55:06;17.43;;;5.37;;
41253;SDS011;26987;59.928;30.306;2023-01-08T01:57:37;17.87;;;5.53;;
41253;SDS011;26987;59.928;30.306;2023-01-08T02:00:07;12.77;;;4.20;;
41253;SDS011;26987;59.928;30.306;2023-01-08T02:02:38;12.50;;;3.97;;
41253;SDS011;26987;59.928;30.306;2023-01-08T02:05:08;13.00;;;3.93;;
41253;SDS011;26987;59.928;30.306;2023-01-08T02:07:37;11.70;;;3.37;;
41253;SDS011;26987;59.928;30.306;2023-01-08T02:10:10;9.47;;;3.70;;
41253;SDS011;26987;59.928;30.306;2023-01-08T02:12:46;14.70;;;3.45;;
41253;SDS011;26987;59.928;30.306;2023-01-08T02:15:18;13.80;;;4.23;;
41253;SDS011;26987;59.928;30.306;2023-01-08T02:17:52;12.63;;;3.30;;
41253;SDS011;26987;59.928;30.306;2023-01-08T02:20:26;11.03;;;3.20;;
41253;SDS011;26987;59.928;30.306;2023-01-08T02:23:07;7.85;;;3.58;;
41253;SDS011;26987;59.928;30.306;2023-01-08T02:28:43;11.63;;;3.87;;
41253;SDS011;26987;59.928;30.306;2023-01-08T02:31:15;11.27;;;3.13;;
41253;SDS011;26987;59.928;30.306;2023-01-08T02:33:45;7.27;;;2.83;;
41253;SDS011;26987;59.928;30.306;2023-01-08T02:36:15;15.17;;;3.73;;
41253;SDS011;26987;59.928;30.306;2023-01-08T02:39:10;15.07;;;4.07;;
41253;SDS011;26987;59.928;30.306;2023-01-08T02:41:53;7.87;;;2.30;;
41253;SDS011;26987;59.928;30.306;2023-01-08T02:44:33;10.23;;;2.87;;
41253;SDS011;26987;59.928;30.306;2023-01-08T02:47:10;11.13;;;3.20;;
41253;SDS011;26987;59.928;30.306;2023-01-08T02:52:12;7.37;;;2.67;;
41253;SDS011;26987;59.928;30.306;2023-01-08T02:54:44;19.23;;;3.27;;
41253;SDS011;26987;59.928;30.306;2023-01-08T02:57:15;7.40;;;2.90;;
41253;SDS011;26987;59.928;30.306;2023-01-08T02:59:45;12.10;;;2.87;;
41253;SDS011;26987;59.928;30.306;2023-01-08T03:02:15;12.27;;;3.27;;
41253;SDS011;26987;59.928;30.306;2023-01-08T03:04:45;12.40;;;3.47;;
41253;SDS011;26987;59.928;30.306;2023-01-08T03:07:19;12.23;;;3.87;;
41253;SDS011;26987;59.928;30.306;2023-01-08T03:09:47;16.57;;;4.10;;
41253;SDS011;26987;59.928;30.306;2023-01-08T03:12:17;14.17;;;4.83;;
41253;SDS011;26987;59.928;30.306;2023-01-08T03:14:49;12.07;;;4.73;;
41253;SDS011;26987;59.928;30.306;2023-01-08T03:17:23;18.17;;;5.40;;
41253;SDS011;26987;59.928;30.306;2023-01-08T03:19:57;10.73;;;4.27;;
41253;SDS011;26987;59.928;30.306;2023-01-08T03:22:27;13.60;;;5.57;;
41253;SDS011;26987;59.928;30.306;2023-01-08T03:24:58;10.03;;;3.33;;
41253;SDS011;26987;59.928;30.306;2023-01-08T03:27:28;20.00;;;5.70;;
41253;SDS011;26987;59.928;30.306;2023-01-08T03:29:59;20.03;;;5.33;;
41253;SDS011;26987;59.928;30.306;2023-01-08T03:32:29;20.13;;;6.10;;
41253;SDS011;26987;59.928;30.306;2023-01-08T03:34:58;11.47;;;4.97;;
41253;SDS011;26987;59.928;30.306;2023-01-08T03:37:30;12.00;;;3.93;;
41253;SDS011;26987;59.928;30.306;2023-01-08T03:40:03;12.35;;;3.78;;
41253;SDS011;26987;59.928;30.306;2023-01-08T03:42:37;18.63;;;5.10;;
41253;SDS011;26987;59.928;30.306;2023-01-08T03:45:05;14.13;;;4.83;;
41253;SDS011;26987;59.928;30.306;2023-01-08T03:47:33;13.07;;;3.33;;
41253;SDS011;26987;59.928;30.306;2023-01-08T03:50:04;13.77;;;4.33;;
41253;SDS011;26987;59.928;30.306;2023-01-08T03:52:35;13.40;;;3.93;;
41253;SDS011;26987;59.928;30.306;2023-01-08T03:55:03;10.97;;;4.30;;
41253;SDS011;26987;59.928;30.306;2023-01-08T03:57:31;15.13;;;4.90;;
41253;SDS011;26987;59.928;30.306;2023-01-08T04:00:01;18.23;;;5.97;;
41253;SDS011;26987;59.928;30.306;2023-01-08T04:02:31;14.27;;;4.30;;
41253;SDS011;26987;59.928;30.306;2023-01-08T04:04:58;19.03;;;6.20;;
41253;SDS011;26987;59.928;30.306;2023-01-08T04:07:26;19.23;;;6.73;;
41253;SDS011;26987;59.928;30.306;2023-01-08T04:09:54;17.20;;;5.27;;
41253;SDS011;26987;59.928;30.306;2023-01-08T04:12:21;18.00;;;5.33;;
41253;SDS011;26987;59.928;30.306;2023-01-08T04:14:49;17.47;;;5.97;;
41253;SDS011;26987;59.928;30.306;2023-01-08T04:17:19;18.07;;;6.23;;
41253;SDS011;26987;59.928;30.306;2023-01-08T04:19:46;13.43;;;5.17;;
41253;SDS011;26987;59.928;30.306;2023-01-08T04:22:14;21.90;;;6.03;;
41253;SDS011;26987;59.928;30.306;2023-01-08T04:24:41;20.07;;;5.27;;
41253;SDS011;26987;59.928;30.306;2023-01-08T04:27:09;21.13;;;7.03;;
41253;SDS011;26987;59.928;30.306;2023-01-08T04:29:37;20.67;;;6.77;;
41253;SDS011;26987;59.928;30.306;2023-01-08T04:32:04;15.63;;;5.33;;
41253;SDS011;26987;59.928;30.306;2023-01-08T04:34:33;15.43;;;4.47;;
41253;SDS011;26987;59.928;30.306;2023-01-08T04:37:01;26.07;;;7.67;;
41253;SDS011;26987;59.928;30.306;2023-01-08T04:39:29;19.97;;;7.30;;
41253;SDS011;26987;59.928;30.306;2023-01-08T04:41:56;19.13;;;5.33;;
41253;SDS011;26987;59.928;30.306;2023-01-08T04:44:24;21.13;;;6.90;;
41253;SDS011;26987;59.928;30.306;2023-01-08T04:46:52;22.93;;;6.27;;
41253;SDS011;26987;59.928;30.306;2023-01-08T04:49:19;13.37;;;4.53;;
41253;SDS011;26987;59.928;30.306;2023-01-08T04:51:48;23.90;;;7.60;;
41253;SDS011;26987;59.928;30.306;2023-01-08T04:54:16;21.97;;;6.77;;
41253;SDS011;26987;59.928;30.306;2023-01-08T04:56:44;22.97;;;6.53;;
41253;SDS011;26987;59.928;30.306;2023-01-08T04:59:11;17.57;;;6.83;;
41253;SDS011;26987;59.928;30.306;2023-01-08T05:01:39;21.83;;;6.50;;
41253;SDS011;26987;59.928;30.306;2023-01-08T05:04:07;18.60;;;6.70;;
41253;SDS011;26987;59.928;30.306;2023-01-08T05:06:36;17.20;;;6.30;;
41253;SDS011;26987;59.928;30.306;2023-01-08T05:09:05;24.67;;;5.53;;
41253;SDS011;26987;59.928;30.306;2023-01-08T05:11:33;21.40;;;6.10;;
41253;SDS011;26987;59.928;30.306;2023-01-08T05:14:02;23.63;;;6.90;;
41253;SDS011;26987;59.928;30.306;2023-01-08T05:16:30;23.53;;;5.00;;
41253;SDS011;26987;59.928;30.306;2023-01-08T05:18:58;17.17;;;5.67;;
41253;SDS011;26987;59.928;30.306;2023-01-08T05:21:26;24.17;;;8.00;;
41253;SDS011;26987;59.928;30.306;2023-01-08T05:23:53;24.67;;;6.77;;
41253;SDS011;26987;59.928;30.306;2023-01-08T05:26:22;17.83;;;5.97;;
41253;SDS011;26987;59.928;30.306;2023-01-08T05:28:50;16.63;;;5.50;;
41253;SDS011;26987;59.928;30.306;2023-01-08T05:31:17;23.13;;;6.47;;
41253;SDS011;26987;59.928;30.306;2023-01-08T05:33:45;17.53;;;6.30;;
41253;SDS011;26987;59.928;30.306;2023-01-08T05:36:13;22.77;;;6.73;;
41253;SDS011;26987;59.928;30.306;2023-01-08T05:38:41;23.73;;;6.97;;
41253;SDS011;26987;59.928;30.306;2023-01-08T05:41:08;23.67;;;6.83;;
41253;SDS011;26987;59.928;30.306;2023-01-08T05:43:38;20.93;;;6.93;;
41253;SDS011;26987;59.928;30.306;2023-01-08T05:46:05;30.77;;;8.70;;
41253;SDS011;26987;59.928;30.306;2023-01-08T05:48:34;36.33;;;8.73;;
41253;SDS011;26987;59.928;30.306;2023-01-08T05:51:02;29.83;;;10.47;;
41253;SDS011;26987;59.928;30.306;2023-01-08T05:53:30;26.53;;;7.93;;
41253;SDS011;26987;59.928;30.306;2023-01-08T05:55:59;24.43;;;7.53;;
41253;SDS011;26987;59.928;30.306;2023-01-08T05:58:28;27.03;;;7.73;;
41253;SDS011;26987;59.928;30.306;2023-01-08T06:01:00;19.17;;;6.77;;
41253;SDS011;26987;59.928;30.306;2023-01-08T06:03:29;30.13;;;7.90;;
41253;SDS011;26987;59.928;30.306;2023-01-08T06:05:57;18.87;;;6.87;;
41253;SDS011;26987;59.928;30.306;2023-01-08T06:08:26;20.03;;;6.43;;
41253;SDS011;26987;59.928;30.306;2023-01-08T06:10:57;14.57;;;4.30;;
41253;SDS011;26987;59.928;30.306;2023-01-08T06:13:25;22.37;;;7.50;;
41253;SDS011;26987;59.928;30.306;2023-01-08T06:15:53;18.10;;;5.47;;
41253;SDS011;26987;59.928;30.306;2023-01-08T06:18:23;22.87;;;6.57;;
41253;SDS011;26987;59.928;30.306;2023-01-08T06:20:50;19.73;;;6.13;;
41253;SDS011;26987;59.928;30.306;2023-01-08T06:23:18;17.97;;;5.63;;
41253;SDS011;26987;59.928;30.306;2023-01-08T06:25:50;20.30;;;6.07;;
41253;SDS011;26987;59.928;30.306;2023-01-08T06:28:18;17.63;;;6.13;;
41253;SDS011;26987;59.928;30.306;2023-01-08T06:30:46;23.43;;;7.23;;
41253;SDS011;26987;59.928;30.306;2023-01-08T06:33:14;27.63;;;7.80;;
41253;SDS011;26987;59.928;30.306;2023-01-08T06:35:43;23.37;;;8.17;;
41253;SDS011;26987;59.928;30.306;2023-01-08T06:38:10;19.00;;;7.00;;
41253;SDS011;26987;59.928;30.306;2023-01-08T06:40:38;26.27;;;8.77;;
41253;SDS011;26987;59.928;30.306;2023-01-08T06:43:06;28.03;;;8.97;;
41253;SDS011;26987;59.928;30.306;2023-01-08T06:45:33;23.70;;;8.37;;
41253;SDS011;26987;59.928;30.306;2023-01-08T06:48:01;30.77;;;10.00;;
41253;SDS011;26987;59.928;30.306;2023-01-08T06:50:29;28.27;;;8.43;;
41253;SDS011;26987;59.928;30.306;2023-01-08T06:52:59;17.07;;;6.70;;
41253;SDS011;26987;59.928;30.306;2023-01-08T06:55:27;26.63;;;8.93;;
41253;SDS011;26987;59.928;30.306;2023-01-08T06:57:55;23.07;;;7.83;;
41253;SDS011;26987;59.928;30.306;2023-01-08T07:00:23;20.07;;;7.30;;
41253;SDS011;26987;59.928;30.306;2023-01-08T07:02:53;35.43;;;8.67;;
41253;SDS011;26987;59.928;30.306;2023-01-08T07:05:21;22.73;;;7.87;;
41253;SDS011;26987;59.928;30.306;2023-01-08T07:07:49;18.37;;;6.43;;
41253;SDS011;26987;59.928;30.306;2023-01-08T07:10:18;21.30;;;7.50;;
41253;SDS011;26987;59.928;30.306;2023-01-08T07:12:46;24.90;;;6.83;;
41253;SDS011;26987;59.928;30.306;2023-01-08T07:15:14;28.13;;;7.63;;
41253;SDS011;26987;59.928;30.306;2023-01-08T07:17:42;20.67;;;7.07;;
41253;SDS011;26987;59.928;30.306;2023-01-08T07:20:10;16.63;;;6.80;;
41253;SDS011;26987;59.928;30.306;2023-01-08T07:22:38;22.07;;;7.93;;
41253;SDS011;26987;59.928;30.306;2023-01-08T07:25:06;20.43;;;8.07;;
41253;SDS011;26987;59.928;30.306;2023-01-08T07:27:36;17.63;;;7.07;;
41253;SDS011;26987;59.928;30.306;2023-01-08T07:30:04;16.07;;;5.40;;
41253;SDS011;26987;59.928;30.306;2023-01-08T07:32:32;18.47;;;6.90;;
41253;SDS011;26987;59.928;30.306;2023-01-08T07:35:00;22.03;;;7.03;;
41253;SDS011;26987;59.928;30.306;2023-01-08T07:37:28;15.17;;;5.73;;
41253;SDS011;26987;59.928;30.306;2023-01-08T07:39:55;12.80;;;5.33;;
41253;SDS011;26987;59.928;30.306;2023-01-08T07:42:23;18.50;;;6.20;;
41253;SDS011;26987;59.928;30.306;2023-01-08T07:44:52;17.57;;;7.00;;
41253;SDS011;26987;59.928;30.306;2023-01-08T07:47:20;12.40;;;4.90;;
41253;SDS011;26987;59.928;30.306;2023-01-08T07:49:47;17.63;;;6.07;;
41253;SDS011;26987;59.928;30.306;2023-01-08T07:52:15;18.80;;;5.87;;
41253;SDS011;26987;59.928;30.306;2023-01-08T07:54:43;21.93;;;7.83;;
41253;SDS011;26987;59.928;30.306;2023-01-08T07:57:11;30.67;;;8.40;;
41253;SDS011;26987;59.928;30.306;2023-01-08T07:59:38;22.80;;;8.23;;
41253;SDS011;26987;59.928;30.306;2023-01-08T08:02:08;22.10;;;8.03;;
41253;SDS011;26987;59.928;30.306;2023-01-08T08:04:36;21.63;;;7.07;;
41253;SDS011;26987;59.928;30.306;2023-01-08T08:07:04;26.70;;;8.70;;
41253;SDS011;26987;59.928;30.306;2023-01-08T08:09:32;39.97;;;10.73;;
41253;SDS011;26987;59.928;30.306;2023-01-08T08:11:59;20.67;;;8.37;;
41253;SDS011;26987;59.928;30.306;2023-01-08T08:14:27;27.30;;;9.20;;
41253;SDS011;26987;59.928;30.306;2023-01-08T08:16:55;27.50;;;8.87;;
41253;SDS011;26987;59.928;30.306;2023-01-08T08:19:24;23.30;;;8.23;;
41253;SDS011;26987;59.928;30.306;2023-01-08T08:21:51;27.43;;;8.97;;
41253;SDS011;26987;59.928;30.306;2023-01-08T08:24:19;23.77;;;9.37;;
41253;SDS011;26987;59.928;30.306;2023-01-08T08:26:47;27.27;;;8.13;;
41253;SDS011;26987;59.928;30.306;2023-01-08T08:29:14;16.17;;;5.23;;
41253;SDS011;26987;59.928;30.306;2023-01-08T08:31:42;21.00;;;6.20;;
41253;SDS011;26987;59.928;30.306;2023-01-08T08:34:10;23.83;;;6.43;;
41253;SDS011;26987;59.928;30.306;2023-01-08T08:36:39;20.23;;;7.23;;
41253;SDS011;26987;59.928;30.306;2023-01-08T08:39:06;23.00;;;7.83;;
41253;SDS011;26987;59.928;30.306;2023-01-08T08:41:34;15.17;;;6.17;;
41253;SDS011;26987;59.928;30.306;2023-01-08T08:44:02;24.33;;;6.43;;
41253;SDS011;26987;59.928;30.306;2023-01-08T08:46:30;25.47;;;7.60;;
41253;SDS011;26987;59.928;30.306;2023-01-08T08:48:57;22.67;;;7.03;;
41253;SDS011;26987;59.928;30.306;2023-01-08T08:51:25;25.13;;;7.20;;
41253;SDS011;26987;59.928;30.306;2023-01-08T08:53:54;22.10;;;7.37;;
41253;SDS011;26987;59.928;30.306;2023-01-08T08:56:22;17.80;;;5.93;;
41253;SDS011;26987;59.928;30.306;2023-01-08T08:58:50;18.50;;;6.50;;
41253;SDS011;26987;59.928;30.306;2023-01-08T09:01:17;24.90;;;8.43;;
41253;SDS011;26987;59.928;30.306;2023-01-08T09:03:45;23.57;;;7.10;;
41253;SDS011;26987;59.928;30.306;2023-01-08T09:06:13;20.10;;;6.43;;
41253;SDS011;26987;59.928;30.306;2023-01-08T09:08:41;19.73;;;6.87;;
41253;SDS011;26987;59.928;30.306;2023-01-08T09:11:10;25.33;;;7.57;;
41253;SDS011;26987;59.928;30.306;2023-01-08T09:13:38;20.77;;;6.57;;
41253;SDS011;26987;59.928;30.306;2023-01-08T09:16:06;19.77;;;7.20;;
41253;SDS011;26987;59.928;30.306;2023-01-08T09:18:34;22.67;;;6.47;;
41253;SDS011;26987;59.928;30.306;2023-01-08T09:21:05;19.43;;;6.70;;
41253;SDS011;26987;59.928;30.306;2023-01-08T09:23:33;22.80;;;7.63;;
41253;SDS011;26987;59.928;30.306;2023-01-08T09:26:02;15.17;;;5.50;;
41253;SDS011;26987;59.928;30.306;2023-01-08T09:28:33;23.43;;;6.80;;
41253;SDS011;26987;59.928;30.306;2023-01-08T09:31:01;21.80;;;7.73;;
41253;SDS011;26987;59.928;30.306;2023-01-08T09:33:29;20.13;;;7.23;;
41253;SDS011;26987;59.928;30.306;2023-01-08T09:35:58;21.97;;;7.63;;
41253;SDS011;26987;59.928;30.306;2023-01-08T09:38:27;25.27;;;8.43;;
41253;SDS011;26987;59.928;30.306;2023-01-08T09:40:57;21.03;;;5.90;;
41253;SDS011;26987;59.928;30.306;2023-01-08T09:43:31;20.77;;;7.27;;
41253;SDS011;26987;59.928;30.306;2023-01-08T09:46:03;17.63;;;6.13;;
41253;SDS011;26987;59.928;30.306;2023-01-08T09:48:34;24.10;;;8.00;;
41253;SDS011;26987;59.928;30.306;2023-01-08T09:51:03;23.17;;;7.03;;
41253;SDS011;26987;59.928;30.306;2023-01-08T09:53:35;19.37;;;6.10;;
41253;SDS011;26987;59.928;30.306;2023-01-08T09:56:03;14.23;;;5.43;;
41253;SDS011;26987;59.928;30.306;2023-01-08T09:58:39;21.03;;;7.03;;
41253;SDS011;26987;59.928;30.306;2023-01-08T10:01:10;21.30;;;7.40;;
41253;SDS011;26987;59.928;30.306;2023-01-08T10:03:40;17.17;;;6.17;;
41253;SDS011;26987;59.928;30.306;2023-01-08T10:06:11;25.97;;;5.53;;
41253;SDS011;26987;59.928;30.306;2023-01-08T10:08:40;12.13;;;4.23;;
41253;SDS011;26987;59.928;30.306;2023-01-08T10:11:09;12.60;;;5.07;;
41253;SDS011;26987;59.928;30.306;2023-01-08T10:13:42;25.07;;;7.30;;
41253;SDS011;26987;59.928;30.306;2023-01-08T10:16:16;20.92;;;7.60;;
41253;SDS011;26987;59.928;30.306;2023-01-08T10:18:49;14.60;;;4.85;;
41253;SDS011;26987;59.928;30.306;2023-01-08T10:21:16;10.93;;;5.07;;
41253;SDS011;26987;59.928;30.306;2023-01-08T10:23:47;24.37;;;8.43;;
41253;SDS011;26987;59.928;30.306;2023-01-08T10:26:27;18.73;;;5.40;;
41253;SDS011;26987;59.928;30.306;2023-01-08T10:29:07;18.17;;;6.57;;
41253;SDS011;26987;59.928;30.306;2023-01-08T10:31:38;18.33;;;7.43;;
41253;SDS011;26987;59.928;30.306;2023-01-08T10:34:17;21.05;;;6.72;;
41253;SDS011;26987;59.928;30.306;2023-01-08T10:36:51;21.40;;;6.27;;
41253;SDS011;26987;59.928;30.306;2023-01-08T10:39:20;19.60;;;7.67;;
41253;SDS011;26987;59.928;30.306;2023-01-08T10:41:51;19.33;;;6.40;;
41253;SDS011;26987;59.928;30.306;2023-01-08T10:44:23;17.70;;;5.83;;
41253;SDS011;26987;59.928;30.306;2023-01-08T10:46:52;14.63;;;5.80;;
41253;SDS011;26987;59.928;30.306;2023-01-08T10:49:27;14.63;;;4.80;;
41253;SDS011;26987;59.928;30.306;2023-01-08T10:51:58;16.83;;;4.60;;
41253;SDS011;26987;59.928;30.306;2023-01-08T10:54:28;19.73;;;6.00;;
41253;SDS011;26987;59.928;30.306;2023-01-08T10:56:59;22.83;;;6.60;;
41253;SDS011;26987;59.928;30.306;2023-01-08T10:59:29;14.13;;;5.30;;
41253;SDS011;26987;59.928;30.306;2023-01-08T11:01:57;17.40;;;5.60;;
41253;SDS011;26987;59.928;30.306;2023-01-08T11:04:27;17.37;;;5.27;;
41253;SDS011;26987;59.928;30.306;2023-01-08T11:06:59;16.90;;;6.20;;
41253;SDS011;26987;59.928;30.306;2023-01-08T11:09:29;22.57;;;5.80;;
41253;SDS011;26987;59.928;30.306;2023-01-08T11:11:59;15.93;;;6.07;;
41253;SDS011;26987;59.928;30.306;2023-01-08T11:14:29;18.53;;;5.90;;
41253;SDS011;26987;59.928;30.306;2023-01-08T11:17:00;16.43;;;6.23;;
41253;SDS011;26987;59.928;30.306;2023-01-08T11:19:34;18.63;;;7.55;;
41253;SDS011;26987;59.928;30.306;2023-01-08T11:22:03;12.80;;;5.27;;
41253;SDS011;26987;59.928;30.306;2023-01-08T11:24:34;15.57;;;5.47;;
41253;SDS011;26987;59.928;30.306;2023-01-08T11:27:04;15.53;;;5.00;;
41253;SDS011;26987;59.928;30.306;2023-01-08T11:29:40;20.20;;;5.47;;
41253;SDS011;26987;59.928;30.306;2023-01-08T11:35:09;19.47;;;6.00;;
41253;SDS011;26987;59.928;30.306;2023-01-08T11:40:13;10.40;;;4.10;;
41253;SDS011;26987;59.928;30.306;2023-01-08T11:42:47;13.23;;;5.30;;
41253;SDS011;26987;59.928;30.306;2023-01-08T11:45:28;22.40;;;5.53;;
41253;SDS011;26987;59.928;30.306;2023-01-08T11:48:11;19.67;;;5.67;;
41253;SDS011;26987;59.928;30.306;2023-01-08T11:50:53;12.25;;;5.80;;
41253;SDS011;26987;59.928;30.306;2023-01-08T11:53:41;12.43;;;4.70;;
41253;SDS011;26987;59.928;30.306;2023-01-08T11:56:16;12.37;;;5.13;;
41253;SDS011;26987;59.928;30.306;2023-01-08T11:58:59;18.33;;;6.20;;
41253;SDS011;26987;59.928;30.306;2023-01-08T12:01:45;20.80;;;4.97;;
41253;SDS011;26987;59.928;30.306;2023-01-08T12:04:29;16.73;;;4.97;;
41253;SDS011;26987;59.928;30.306;2023-01-08T12:07:10;15.83;;;5.03;;
41253;SDS011;26987;59.928;30.306;2023-01-08T12:09:44;14.40;;;5.40;;
41253;SDS011;26987;59.928;30.306;2023-01-08T12:12:17;21.00;;;5.33;;
41253;SDS011;26987;59.928;30.306;2023-01-08T12:14:55;18.80;;;5.63;;
41253;SDS011;26987;59.928;30.306;2023-01-08T12:17:43;20.57;;;5.53;;
41253;SDS011;26987;59.928;30.306;2023-01-08T12:20:31;11.10;;;3.77;;
41253;SDS011;26987;59.928;30.306;2023-01-08T12:23:14;15.07;;;4.60;;
41253;SDS011;26987;59.928;30.306;2023-01-08T12:25:54;10.93;;;4.30;;
41253;SDS011;26987;59.928;30.306;2023-01-08T12:28:35;15.23;;;4.33;;
41253;SDS011;26987;59.928;30.306;2023-01-08T12:31:18;18.83;;;4.83;;
41253;SDS011;26987;59.928;30.306;2023-01-08T12:34:01;15.23;;;4.70;;
41253;SDS011;26987;59.928;30.306;2023-01-08T12:36:35;17.48;;;4.35;;
41253;SDS011;26987;59.928;30.306;2023-01-08T12:39:08;11.50;;;4.87;;
41253;SDS011;26987;59.928;30.306;2023-01-08T12:41:39;12.67;;;4.80;;
41253;SDS011;26987;59.928;30.306;2023-01-08T12:44:10;11.13;;;4.47;;
41253;SDS011;26987;59.928;30.306;2023-01-08T12:46:42;11.07;;;4.30;;
41253;SDS011;26987;59.928;30.306;2023-01-08T12:49:15;8.00;;;3.30;;
41253;SDS011;26987;59.928;30.306;2023-01-08T12:51:53;13.30;;;4.63;;
41253;SDS011;26987;59.928;30.306;2023-01-08T12:54:28;10.83;;;4.10;;
41253;SDS011;26987;59.928;30.306;2023-01-08T12:57:01;29.00;;;5.37;;
41253;SDS011;26987;59.928;30.306;2023-01-08T12:59:36;13.23;;;3.85;;
41253;SDS011;26987;59.928;30.306;2023-01-08T13:02:12;8.80;;;3.80;;
41253;SDS011;26987;59.928;30.306;2023-01-08T13:04:47;10.73;;;4.73;;
41253;SDS011;26987;59.928;30.306;2023-01-08T13:07:17;14.77;;;5.17;;
41253;SDS011;26987;59.928;30.306;2023-01-08T13:09:53;16.87;;;5.60;;
41253;SDS011;26987;59.928;30.306;2023-01-08T13:12:25;17.63;;;5.70;;
41253;SDS011;26987;59.928;30.306;2023-01-08T13:15:01;19.00;;;5.40;;
41253;SDS011;26987;59.928;30.306;2023-01-08T13:17:30;17.73;;;5.73;;
41253;SDS011;26987;59.928;30.306;2023-01-08T13:20:00;13.27;;;4.73;;
41253;SDS011;26987;59.928;30.306;2023-01-08T13:22:29;14.37;;;5.33;;
41253;SDS011;26987;59.928;30.306;2023-01-08T13:27:55;11.23;;;4.83;;
41253;SDS011;26987;59.928;30.306;2023-01-08T13:30:35;15.17;;;5.10;;
41253;SDS011;26987;59.928;30.306;2023-01-08T13:33:24;14.80;;;5.23;;
41253;SDS011;26987;59.928;30.306;2023-01-08T13:36:15;17.10;;;6.20;;
41253;SDS011;26987;59.928;30.306;2023-01-08T13:41:58;14.67;;;5.07;;
41253;SDS011;26987;59.928;30.306;2023-01-08T13:44:29;9.60;;;3.63;;
41253;SDS011;26987;59.928;30.306;2023-01-08T13:47:00;11.50;;;4.57;;
41253;SDS011;26987;59.928;30.306;2023-01-08T13:49:32;19.60;;;4.30;;
41253;SDS011;26987;59.928;30.306;2023-01-08T13:52:05;15.93;;;4.80;;
41253;SDS011;26987;59.928;30.306;2023-01-08T13:54:48;17.43;;;5.20;;
41253;SDS011;26987;59.928;30.306;2023-01-08T13:57:16;11.30;;;4.17;;
41253;SDS011;26987;59.928;30.306;2023-01-08T13:59:47;12.80;;;4.77;;
41253;SDS011;26987;59.928;30.306;2023-01-08T14:02:20;19.20;;;5.53;;
41253;SDS011;26987;59.928;30.306;2023-01-08T14:04:51;14.17;;;5.30;;
41253;SDS011;26987;59.928;30.306;2023-01-08T14:07:21;11.73;;;4.63;;
41253;SDS011;26987;59.928;30.306;2023-01-08T14:09:49;15.70;;;5.50;;
41253;SDS011;26987;59.928;30.306;2023-01-08T14:12:18;15.70;;;5.77;;
41253;SDS011;26987;59.928;30.306;2023-01-08T14:14:49;20.67;;;7.20;;
41253;SDS011;26987;59.928;30.306;2023-01-08T14:17:20;16.13;;;3.67;;
41253;SDS011;26987;59.928;30.306;2023-01-08T14:19:51;15.20;;;5.23;;
41253;SDS011;26987;59.928;30.306;2023-01-08T14:22:27;16.73;;;5.97;;
41253;SDS011;26987;59.928;30.306;2023-01-08T14:25:00;20.17;;;6.40;;
41253;SDS011;26987;59.928;30.306;2023-01-08T14:27:30;18.57;;;5.53;;
41253;SDS011;26987;59.928;30.306;2023-01-08T14:29:58;17.97;;;6.27;;
41253;SDS011;26987;59.928;30.306;2023-01-08T14:32:26;12.33;;;4.93;;
41253;SDS011;26987;59.928;30.306;2023-01-08T14:34:55;10.73;;;5.10;;
41253;SDS011;26987;59.928;30.306;2023-01-08T14:37:25;13.07;;;4.47;;
41253;SDS011;26987;59.928;30.306;2023-01-08T14:39:54;21.40;;;5.17;;
41253;SDS011;26987;59.928;30.306;2023-01-08T14:42:23;8.87;;;4.10;;
41253;SDS011;26987;59.928;30.306;2023-01-08T14:45:14;14.70;;;5.37;;
41253;SDS011;26987;59.928;30.306;2023-01-08T14:47:47;11.45;;;4.45;;
41253;SDS011;26987;59.928;30.306;2023-01-08T14:50:22;15.40;;;6.20;;
41253;SDS011;26987;59.928;30.306;2023-01-08T14:55:21;17.07;;;5.40;;
41253;SDS011;26987;59.928;30.306;2023-01-08T14:57:52;17.17;;;5.83;;
41253;SDS011;26987;59.928;30.306;2023-01-08T15:00:23;15.17;;;5.10;;
41253;SDS011;26987;59.928;30.306;2023-01-08T15:02:53;14.30;;;4.80;;